Ely Airport Yelland Field Ely US
ICAO: KELY
IATA: ELY
Category: Medium
Scheduled Services: No

Elevation: 6259 ft
TransAlt. 18000 ft.

Airport Communications:
ASOS:120.625
SALT LAKE CNTR:133.45
CTAF/UNICOM:122.8

KELY Zoom In..

If you have problems with the map follow the link
https://www.worldairports.se/pages/airport.php?
ICAO=KELY

Runways:

(A) RW 12 length 4825 ft width 60 ft
---- / hdg 127

(B) RW 18 length 6018 ft width 150 ft
---- / hdg 180

(C) RW 30 length 4825 ft width 60 ft
---- / hdg 307

(D) RW 36 length 6018 ft width 150 ft
---- / hdg 360

Location; KELY
Day. 28 / Time. 13.53 Zulu
* Altimeter: 30.24
* Temperature: -06° c. -21.2°f.
* Wind from: 160° Speed 08 kn.
Dewpoint: -07° c.
Visibility: 10 Statute Miles.
Clouds: Clear (automated report).

KELY 281353Z AUTO 16008KT 10SM CLR M06/M07 A3024 RMK AO2 SLP256 T10561072


Wind From 160°
Speed 08 kn.

 
 
jpsmedia worldairports.se 2020   terms of use